createdAt,value
2018-05-03T00:01:24.469Z,77.60
2018-05-03T00:03:50.699Z,77.90
2018-05-03T00:06:16.965Z,78.10
2018-05-03T00:08:43.093Z,77.60
2018-05-03T00:11:09.247Z,77.90
2018-05-03T00:13:36.162Z,79.20
2018-05-03T00:16:02.543Z,79.10
2018-05-03T00:18:28.678Z,79.50
2018-05-03T00:20:54.850Z,79.80
2018-05-03T00:23:22.035Z,80.10
2018-05-03T00:25:48.906Z,80.30
2018-05-03T00:28:15.070Z,80.20
2018-05-03T00:30:41.189Z,79.30
2018-05-03T00:33:07.306Z,79.50
2018-05-03T00:35:34.019Z,80.30
2018-05-03T00:38:00.193Z,79.50
2018-05-03T00:40:26.332Z,80.00
2018-05-03T00:42:52.510Z,79.90
2018-05-03T00:45:18.637Z,79.40
2018-05-03T00:47:44.750Z,80.50
2018-05-03T00:50:11.173Z,79.80
2018-05-03T00:52:38.077Z,79.70
2018-05-03T00:55:04.234Z,79.60
2018-05-03T00:57:31.152Z,80.30
2018-05-03T00:59:57.302Z,80.20
2018-05-03T01:02:24.189Z,79.70
2018-05-03T01:04:50.438Z,79.70
2018-05-03T01:07:16.622Z,79.30
2018-05-03T01:09:42.946Z,80.20
2018-05-03T01:12:09.836Z,81.30
2018-05-03T01:14:36.008Z,81.30
2018-05-03T01:17:02.889Z,81.80
2018-05-03T01:19:29.410Z,81.80
2018-05-03T01:21:55.529Z,82.30
2018-05-03T01:24:22.398Z,81.20
2018-05-03T01:26:48.532Z,81.10
2018-05-03T01:29:14.647Z,81.20
2018-05-03T01:31:40.785Z,82.10
2018-05-03T01:34:07.033Z,82.00
2018-05-03T01:36:33.202Z,81.70
2018-05-03T01:39:00.135Z,81.70
2018-05-03T01:41:26.296Z,81.60
2018-05-03T01:43:52.426Z,82.80
2018-05-03T01:46:18.556Z,82.10
2018-05-03T01:48:44.701Z,82.30
2018-05-03T01:51:10.997Z,82.10
2018-05-03T01:53:37.863Z,83.30
2018-05-03T01:56:03.993Z,83.30
2018-05-03T01:58:30.293Z,83.30
2018-05-03T02:01:01.258Z,83.40
2018-05-03T02:03:27.395Z,83.30
2018-05-03T02:05:53.578Z,83.20
2018-05-03T02:08:19.698Z,83.40
2018-05-03T02:10:45.966Z,83.40
2018-05-03T02:13:12.123Z,83.10
2018-05-03T02:15:38.261Z,82.00
2018-05-03T02:18:04.395Z,81.60
2018-05-03T02:20:30.574Z,83.00
2018-05-03T02:22:56.747Z,83.50
2018-05-03T02:25:22.902Z,82.40
2018-05-03T02:27:49.794Z,81.80
2018-05-03T02:30:16.430Z,81.80
2018-05-03T02:32:42.563Z,82.60
2018-05-03T02:35:08.706Z,83.00
2018-05-03T02:37:34.877Z,82.80
2018-05-03T02:40:01.780Z,82.90
2018-05-03T02:42:28.390Z,82.90
2018-05-03T02:44:54.529Z,82.70
2018-05-03T02:47:20.658Z,83.40
2018-05-03T02:49:46.805Z,83.60
2018-05-03T02:52:12.931Z,83.90
2018-05-03T02:54:39.078Z,84.00
2018-05-03T02:57:17.566Z,84.10
2018-05-03T02:59:56.379Z,84.00
2018-05-03T03:05:50.120Z,83.70
2018-05-03T03:15:31.189Z,84.00
2018-05-03T03:18:09.790Z,85.20
2018-05-03T03:20:55.249Z,86.40
2018-05-03T03:23:40.820Z,87.90
2018-05-03T03:26:25.524Z,87.90
2018-05-03T03:29:11.172Z,88.00
2018-05-03T03:31:55.992Z,90.60
2018-05-03T03:34:26.525Z,91.40
2018-05-03T03:37:25.479Z,90.80
2018-05-03T03:40:10.920Z,87.90
2018-05-03T03:45:53.205Z,86.90
2018-05-03T03:48:20.077Z,84.40
2018-05-03T03:50:46.189Z,84.40
2018-05-03T03:53:13.253Z,84.30
2018-05-03T03:55:39.370Z,84.30
2018-05-03T03:58:05.492Z,83.60
2018-05-03T04:00:31.876Z,82.10
2018-05-03T04:02:58.210Z,81.60
2018-05-03T04:05:24.334Z,80.50
2018-05-03T04:07:50.461Z,80.20
2018-05-03T04:10:16.612Z,80.70
2018-05-03T04:12:43.593Z,79.00
2018-05-03T04:15:09.705Z,78.90
2018-05-03T04:17:58.942Z,78.60
2018-05-03T04:20:52.099Z,78.00
2018-05-03T04:23:27.161Z,78.90
2018-05-03T04:25:56.333Z,78.60
2018-05-03T04:28:23.329Z,77.80
2018-05-03T04:30:49.454Z,77.80
2018-05-03T04:33:15.677Z,78.50
2018-05-03T04:35:42.573Z,79.00
2018-05-03T04:38:08.710Z,78.90
2018-05-03T04:40:34.843Z,78.20
2018-05-03T04:43:01.013Z,77.90
2018-05-03T04:45:27.177Z,78.20
2018-05-03T04:47:53.330Z,78.30
2018-05-03T04:50:19.544Z,78.70
2018-05-03T04:52:45.737Z,78.50
2018-05-03T04:55:11.869Z,78.70
2018-05-03T04:57:38.082Z,78.80
2018-05-03T05:00:04.365Z,78.30
2018-05-03T05:02:30.501Z,79.10
2018-05-03T05:04:57.371Z,79.50
2018-05-03T05:07:23.559Z,79.50
2018-05-03T05:09:49.733Z,79.30
2018-05-03T05:12:15.845Z,78.60
2018-05-03T05:14:41.974Z,78.60
2018-05-03T05:17:08.109Z,79.80
2018-05-03T05:19:34.231Z,79.40
2018-05-03T05:22:00.513Z,79.20
2018-05-03T05:24:26.637Z,80.50
2018-05-03T05:26:52.786Z,79.40
2018-05-03T05:29:18.992Z,80.20
2018-05-03T05:31:45.381Z,80.50
2018-05-03T05:34:11.510Z,79.80
2018-05-03T05:36:37.625Z,80.00
2018-05-03T05:39:03.822Z,80.00
2018-05-03T05:41:30.030Z,80.90
2018-05-03T05:43:56.181Z,80.10
2018-05-03T05:46:22.594Z,80.30
2018-05-03T05:48:48.772Z,79.20
2018-05-03T05:51:14.988Z,80.30
2018-05-03T05:53:41.126Z,80.30
2018-05-03T05:56:07.273Z,80.20
2018-05-03T05:58:33.395Z,80.20
2018-05-03T06:00:59.785Z,80.50
2018-05-03T06:03:25.927Z,79.40
2018-05-03T06:05:52.066Z,79.90
2018-05-03T06:08:18.229Z,80.50
2018-05-03T06:10:45.414Z,80.40
2018-05-03T06:13:11.835Z,79.10
2018-05-03T06:15:37.970Z,79.40
2018-05-03T06:29:31.589Z,77.90
2018-05-03T06:31:57.758Z,78.20
2018-05-03T06:34:23.911Z,78.10
2018-05-03T06:36:50.814Z,77.90
2018-05-03T06:39:16.988Z,77.70
2018-05-03T06:41:43.140Z,78.20
2018-05-03T06:44:09.291Z,76.80
2018-05-03T06:46:35.638Z,77.60
2018-05-03T06:49:02.145Z,76.70
2018-05-03T06:51:28.406Z,75.90
2018-05-03T06:53:55.226Z,75.80
2018-05-03T06:56:21.407Z,75.80
2018-05-03T06:58:48.326Z,75.30
2018-05-03T07:01:14.506Z,75.30
2018-05-03T07:03:40.659Z,74.50
2018-05-03T07:06:06.811Z,74.40
2018-05-03T07:08:32.957Z,74.70
2018-05-03T07:10:59.864Z,74.50
2018-05-03T07:13:26.028Z,74.40
2018-05-03T07:15:52.962Z,72.20
2018-05-03T07:18:19.384Z,71.90
2018-05-03T07:20:45.780Z,69.40
2018-05-03T07:23:11.949Z,71.20
2018-05-03T07:25:38.129Z,71.90
2018-05-03T07:28:04.335Z,70.10
2018-05-03T07:30:31.296Z,70.70
2018-05-03T07:32:57.521Z,70.60
2018-05-03T07:35:23.877Z,71.00
2018-05-03T07:37:50.556Z,72.10
2018-05-03T07:40:16.707Z,68.20
2018-05-03T07:42:43.703Z,69.30
2018-05-03T07:45:09.872Z,69.20
2018-05-03T07:47:36.052Z,69.60
2018-05-03T07:50:02.568Z,69.90
2018-05-03T07:52:28.735Z,68.90
2018-05-03T07:54:54.934Z,66.30
2018-05-03T07:57:21.102Z,68.70
2018-05-03T07:59:47.423Z,68.30
2018-05-03T08:02:13.592Z,66.60
2018-05-03T08:04:39.796Z,65.20
2018-05-03T08:07:06.085Z,65.10
2018-05-03T08:09:32.247Z,68.50
2018-05-03T08:11:58.440Z,64.50
2018-05-03T08:14:24.675Z,64.50
2018-05-03T08:16:50.831Z,65.50
2018-05-03T08:19:17.008Z,65.80
2018-05-03T08:21:43.947Z,61.80
2018-05-03T08:24:10.867Z,62.50
2018-05-03T08:26:37.031Z,62.50
2018-05-03T08:29:03.361Z,60.00
2018-05-03T08:31:29.512Z,58.20
2018-05-03T08:33:55.670Z,61.40
2018-05-03T08:36:21.861Z,60.10
2018-05-03T08:38:48.033Z,59.10
2018-05-03T08:41:14.213Z,60.70
2018-05-03T08:43:40.396Z,60.60
2018-05-03T08:46:06.580Z,61.80
2018-05-03T08:48:32.756Z,59.80
2018-05-03T08:50:58.923Z,59.60
2018-05-03T08:53:25.827Z,58.80
2018-05-03T08:55:52.165Z,58.60
2018-05-03T08:58:18.254Z,59.00
2018-05-03T09:00:44.435Z,55.70
2018-05-03T09:03:10.607Z,55.20
2018-05-03T09:05:36.832Z,56.00
2018-05-03T09:08:03.032Z,57.30
2018-05-03T09:10:29.270Z,56.00
2018-05-03T09:12:56.186Z,54.90
2018-05-03T09:15:22.345Z,54.70
2018-05-03T09:17:49.370Z,55.80
2018-05-03T09:20:15.514Z,55.50
2018-05-03T09:22:42.503Z,55.10
2018-05-03T09:25:08.696Z,55.40
2018-05-03T09:27:34.835Z,54.00
2018-05-03T09:30:01.007Z,53.50
2018-05-03T09:32:27.506Z,54.10
2018-05-03T09:34:53.667Z,52.60
2018-05-03T09:37:19.844Z,50.90
2018-05-03T09:39:46.026Z,51.30
2018-05-03T09:42:12.219Z,52.00
2018-05-03T09:44:38.516Z,51.60
2018-05-03T09:47:05.420Z,50.80
2018-05-03T09:49:31.567Z,50.80
2018-05-03T09:51:57.719Z,50.20
2018-05-03T09:54:24.637Z,49.50
2018-05-03T09:56:50.795Z,49.50
2018-05-03T09:59:17.030Z,49.50
2018-05-03T10:01:43.192Z,49.60
2018-05-03T10:04:09.345Z,48.50
2018-05-03T10:06:35.622Z,47.90
2018-05-03T10:09:01.827Z,50.60
2018-05-03T10:11:28.737Z,45.10
2018-05-03T10:13:54.912Z,45.00
2018-05-03T10:16:21.815Z,48.50
2018-05-03T10:18:48.719Z,47.50
2018-05-03T10:21:14.924Z,47.50
2018-05-03T10:23:41.968Z,48.90
2018-05-03T10:26:08.868Z,48.90
2018-05-03T10:28:35.019Z,48.90
2018-05-03T10:31:01.312Z,49.30
2018-05-03T10:33:27.462Z,47.90
2018-05-03T10:35:59.161Z,49.00
2018-05-03T10:38:25.427Z,46.00
2018-05-03T10:40:51.627Z,46.50
2018-05-03T10:43:18.584Z,48.60
2018-05-03T10:45:45.478Z,48.00
2018-05-03T10:48:11.713Z,47.70
2018-05-03T10:50:37.876Z,45.60
2018-05-03T10:53:04.779Z,46.50
2018-05-03T10:55:30.972Z,46.50
2018-05-03T10:57:57.879Z,47.20
2018-05-03T11:00:24.156Z,47.00
2018-05-03T11:02:50.315Z,49.10
2018-05-03T11:05:16.498Z,47.90
2018-05-03T11:07:42.676Z,48.00
2018-05-03T11:10:08.847Z,47.80
2018-05-03T11:12:35.892Z,45.50
2018-05-03T11:15:02.889Z,51.20
2018-05-03T11:17:29.158Z,51.30
2018-05-03T11:19:55.321Z,44.40
2018-05-03T11:22:21.523Z,49.20
2018-05-03T11:24:48.470Z,49.60
2018-05-03T11:27:15.402Z,43.90
2018-05-03T11:29:41.589Z,43.90
2018-05-03T11:32:07.747Z,45.50
2018-05-03T11:34:34.091Z,47.00
2018-05-03T11:37:00.503Z,44.70
2018-05-03T11:39:26.703Z,48.00
2018-05-03T11:41:52.924Z,47.10
2018-05-03T11:44:19.167Z,48.30
2018-05-03T11:46:45.379Z,47.70
2018-05-03T11:49:11.571Z,48.60
2018-05-03T11:51:37.791Z,48.40
2018-05-03T11:54:04.190Z,47.10
2018-05-03T11:56:30.424Z,45.20
2018-05-03T11:58:56.608Z,45.40
2018-05-03T12:01:23.579Z,47.00
2018-05-03T12:03:49.783Z,47.20
2018-05-03T12:06:16.728Z,47.10
2018-05-03T12:08:42.929Z,47.10
2018-05-03T12:11:09.148Z,46.70
2018-05-03T12:13:35.353Z,45.80
2018-05-03T12:16:01.579Z,46.60
2018-05-03T12:18:27.812Z,49.30
2018-05-03T12:20:54.843Z,46.10
2018-05-03T12:23:21.035Z,45.80
2018-05-03T12:25:47.353Z,45.00
2018-05-03T12:28:13.989Z,46.20
2018-05-03T12:30:40.251Z,44.70
2018-05-03T12:33:07.205Z,43.90
2018-05-03T12:35:33.451Z,43.50
2018-05-03T12:37:59.678Z,47.80
2018-05-03T12:40:25.903Z,44.20
2018-05-03T12:42:52.888Z,45.70
2018-05-03T12:45:19.189Z,45.50
2018-05-03T12:47:45.446Z,46.10
2018-05-03T12:50:11.696Z,47.80
2018-05-03T12:52:37.968Z,45.60
2018-05-03T12:55:04.979Z,47.50
2018-05-03T12:57:31.198Z,47.40
2018-05-03T12:59:57.436Z,48.60
2018-05-03T13:02:23.663Z,47.20
2018-05-03T13:04:50.007Z,48.20
2018-05-03T13:07:16.403Z,48.50
2018-05-03T13:09:42.635Z,45.90
2018-05-03T13:12:08.842Z,45.80
2018-05-03T13:14:35.220Z,48.00
2018-05-03T13:17:01.608Z,46.60
2018-05-03T13:19:27.779Z,45.90
2018-05-03T13:21:54.000Z,46.40
2018-05-03T13:24:20.276Z,48.10
2018-05-03T13:26:47.265Z,51.20
2018-05-03T13:29:13.535Z,51.10
2018-05-03T13:31:39.855Z,52.50
2018-05-03T13:34:06.116Z,50.00
2018-05-03T13:36:33.039Z,52.10
2018-05-03T13:39:13.353Z,52.30
2018-05-03T13:41:39.559Z,51.20
2018-05-03T13:44:05.808Z,50.60
2018-05-03T13:46:38.927Z,48.60
2018-05-03T13:49:05.145Z,50.00
2018-05-03T13:51:31.392Z,47.30
2018-05-03T13:53:57.840Z,48.00
2018-05-03T13:56:24.101Z,48.10
2018-05-03T13:58:50.344Z,52.90
2018-05-03T14:01:16.667Z,54.80
2018-05-03T14:03:42.846Z,53.70
2018-05-03T14:06:09.003Z,54.60
2018-05-03T14:08:36.128Z,53.90
2018-05-03T14:11:02.303Z,53.90
2018-05-03T14:13:28.463Z,54.30
2018-05-03T14:15:54.682Z,54.00
2018-05-03T14:18:20.839Z,52.30
2018-05-03T14:20:47.020Z,52.50
2018-05-03T14:23:13.179Z,54.60
2018-05-03T14:25:39.852Z,57.80
2018-05-03T14:28:05.966Z,56.20
2018-05-03T14:30:32.211Z,57.70
2018-05-03T14:32:58.464Z,57.90
2018-05-03T14:35:25.350Z,57.90
2018-05-03T14:37:51.531Z,58.00
2018-05-03T14:40:18.490Z,58.00
2018-05-03T14:42:45.053Z,57.80
2018-05-03T14:45:11.195Z,56.40
2018-05-03T14:47:37.343Z,56.50
2018-05-03T14:50:03.772Z,60.00
2018-05-03T14:52:29.930Z,57.20
2018-05-03T14:54:57.011Z,57.50
2018-05-03T14:57:23.211Z,57.50
2018-05-03T14:59:49.420Z,57.30
2018-05-03T15:02:15.634Z,58.60
2018-05-03T15:04:41.779Z,59.00
2018-05-03T15:07:07.926Z,57.30
2018-05-03T15:09:34.170Z,58.30
2018-05-03T15:12:00.346Z,58.20
2018-05-03T15:14:26.573Z,58.50
2018-05-03T15:16:52.720Z,59.00
2018-05-03T15:19:18.874Z,57.30
2018-05-03T15:21:45.018Z,58.80
2018-05-03T15:24:12.161Z,58.70
2018-05-03T15:26:38.292Z,58.60
2018-05-03T15:29:05.190Z,62.10
2018-05-03T15:31:31.407Z,62.10
2018-05-03T15:33:57.564Z,59.30
2018-05-03T15:36:24.670Z,61.40
2018-05-03T15:38:51.007Z,61.50
2018-05-03T15:41:17.229Z,59.10
2018-05-03T15:43:43.401Z,60.00
2018-05-03T15:46:09.557Z,59.10
2018-05-03T15:48:36.516Z,61.20
2018-05-03T15:51:03.418Z,61.30
2018-05-03T15:53:29.578Z,61.20
2018-05-03T15:55:55.792Z,62.20
2018-05-03T15:58:21.935Z,61.30
2018-05-03T16:00:48.893Z,62.00
2018-05-03T16:03:15.770Z,61.80
2018-05-03T16:05:41.924Z,61.60
2018-05-03T16:08:08.079Z,61.10
2018-05-03T16:10:34.247Z,63.70
2018-05-03T16:13:00.463Z,62.30
2018-05-03T16:15:27.367Z,63.10
2018-05-03T16:17:53.520Z,63.00
2018-05-03T16:20:20.547Z,62.90
2018-05-03T16:22:46.752Z,62.80
2018-05-03T16:25:13.279Z,61.30
2018-05-03T16:27:39.472Z,61.20
2018-05-03T16:30:05.680Z,60.40
2018-05-03T16:32:31.969Z,60.80
2018-05-03T16:34:58.171Z,60.70
2018-05-03T16:37:24.344Z,60.90
2018-05-03T16:39:50.923Z,61.20
2018-05-03T16:42:17.807Z,61.80
2018-05-03T16:44:44.680Z,61.00
2018-05-03T16:47:10.917Z,60.60
2018-05-03T16:49:37.088Z,61.30
2018-05-03T16:52:03.298Z,59.10
2018-05-03T16:54:30.233Z,62.90
2018-05-03T16:56:56.547Z,62.80
2018-05-03T16:59:22.709Z,63.70
2018-05-03T17:01:48.866Z,63.30
2018-05-03T17:04:15.020Z,63.90
2018-05-03T17:06:41.583Z,62.10
2018-05-03T17:09:08.606Z,62.40
2018-05-03T17:11:34.775Z,62.20
2018-05-03T17:14:02.169Z,63.40
2018-05-03T17:16:28.328Z,63.30
2018-05-03T17:18:54.501Z,62.50
2018-05-03T17:21:20.780Z,62.00
2018-05-03T17:23:46.992Z,65.50
2018-05-03T17:26:13.138Z,63.20
2018-05-03T17:28:39.288Z,62.30
2018-05-03T17:31:05.471Z,62.70
2018-05-03T17:33:32.143Z,64.30
2018-05-03T17:35:58.314Z,63.20
2018-05-03T17:38:24.472Z,62.90
2018-05-03T17:40:50.648Z,63.70
2018-05-03T17:43:16.907Z,65.90
2018-05-03T17:45:43.067Z,64.40
2018-05-03T17:48:09.958Z,64.30
2018-05-03T17:50:36.115Z,64.20
2018-05-03T17:53:02.272Z,64.70
2018-05-03T17:55:29.156Z,62.60
2018-05-03T17:57:55.370Z,69.20
2018-05-03T18:00:22.295Z,64.50
2018-05-03T18:02:48.545Z,64.50
2018-05-03T18:05:15.475Z,64.90
2018-05-03T18:07:42.783Z,65.80
2018-05-03T18:10:08.935Z,66.10
2018-05-03T18:12:35.082Z,64.00
2018-05-03T18:15:01.997Z,67.00
2018-05-03T18:17:28.149Z,66.50
2018-05-03T18:19:54.338Z,65.20
2018-05-03T18:22:20.479Z,66.60
2018-05-03T18:24:46.663Z,64.00
2018-05-03T18:27:13.558Z,68.10
2018-05-03T18:29:39.735Z,67.80
2018-05-03T18:32:05.878Z,66.20
2018-05-03T18:34:32.042Z,66.90
2018-05-03T18:36:58.207Z,67.00
2018-05-03T18:39:24.405Z,67.20
2018-05-03T18:41:50.562Z,67.60
2018-05-03T18:44:17.594Z,66.00
2018-05-03T18:46:43.840Z,65.80
2018-05-03T18:49:10.220Z,66.90
2018-05-03T18:51:36.340Z,68.00
2018-05-03T18:54:02.574Z,71.00
2018-05-03T18:56:28.741Z,68.90
2018-05-03T18:58:55.630Z,67.40
2018-05-03T19:01:21.825Z,67.40
2018-05-03T19:03:48.084Z,67.50
2018-05-03T19:06:14.234Z,68.90
2018-05-03T19:08:40.390Z,67.50
2018-05-03T19:11:06.550Z,70.70
2018-05-03T19:13:32.811Z,70.70
2018-05-03T19:15:58.966Z,70.00
2018-05-03T19:18:25.143Z,68.50
2018-05-03T19:20:52.083Z,70.60
2018-05-03T19:23:18.238Z,70.60
2018-05-03T19:25:44.474Z,70.70
2018-05-03T19:28:10.645Z,69.50
2018-05-03T19:30:37.535Z,70.80
2018-05-03T19:33:03.698Z,70.70
2018-05-03T19:35:29.921Z,71.90
2018-05-03T19:37:56.110Z,70.60
2018-05-03T19:40:22.295Z,72.30
2018-05-03T19:42:48.478Z,70.90
2018-05-03T19:45:15.413Z,72.40
2018-05-03T19:47:41.569Z,72.20
2018-05-03T19:50:07.727Z,73.00
2018-05-03T19:52:34.043Z,74.00
2018-05-03T19:55:00.230Z,74.40
2018-05-03T19:57:26.422Z,74.30
2018-05-03T19:59:52.558Z,75.30
2018-05-03T20:02:18.696Z,75.10
2018-05-03T20:04:45.619Z,74.60
2018-05-03T20:07:11.891Z,74.60
2018-05-03T20:09:38.070Z,76.20
2018-05-03T20:12:04.224Z,75.80
2018-05-03T20:14:30.390Z,76.20
2018-05-03T20:16:57.375Z,75.20
2018-05-03T20:19:23.520Z,75.10
2018-05-03T20:21:49.715Z,75.90
2018-05-03T20:24:15.883Z,76.80
2018-05-03T20:26:42.078Z,75.40
2018-05-03T20:29:08.263Z,76.10
2018-05-03T20:31:35.169Z,76.70
2018-05-03T20:34:01.331Z,76.70
2018-05-03T20:36:27.567Z,77.70
2018-05-03T20:38:53.949Z,78.20
2018-05-03T20:41:20.079Z,78.30
2018-05-03T20:43:46.259Z,79.70
2018-05-03T20:46:13.229Z,78.90
2018-05-03T20:48:39.678Z,78.80
2018-05-03T20:51:05.859Z,78.20
2018-05-03T20:53:32.006Z,78.40
2018-05-03T20:55:58.154Z,78.30
2018-05-03T20:58:24.346Z,79.40
2018-05-03T21:00:51.278Z,79.80
2018-05-03T21:03:17.423Z,79.80
2018-05-03T21:05:44.339Z,80.40
2018-05-03T21:08:10.502Z,80.30
2018-05-03T21:10:37.447Z,81.20
2018-05-03T21:13:04.403Z,82.20
2018-05-03T21:15:31.294Z,81.70
2018-05-03T21:17:57.446Z,81.60
2018-05-03T21:20:23.594Z,81.80
2018-05-03T21:22:50.468Z,83.90
2018-05-03T21:25:17.016Z,83.80
2018-05-03T21:27:43.160Z,83.60
2018-05-03T21:30:10.326Z,83.00
2018-05-03T21:32:36.586Z,83.50
2018-05-03T21:35:03.553Z,84.40
2018-05-03T21:37:29.832Z,84.30
2018-05-03T21:39:56.015Z,84.00
2018-05-03T21:42:22.169Z,84.10
2018-05-03T21:44:48.331Z,84.70
2018-05-03T21:47:14.492Z,84.00
2018-05-03T21:49:40.636Z,84.00
2018-05-03T21:52:06.832Z,85.30
2018-05-03T21:54:33.736Z,85.20
2018-05-03T21:56:59.878Z,85.20
2018-05-03T21:59:26.050Z,85.20
2018-05-03T22:01:52.384Z,85.10
2018-05-03T22:04:18.720Z,90.50
2018-05-03T22:06:44.882Z,89.80
2018-05-03T22:09:11.177Z,90.00
2018-05-03T22:11:37.372Z,88.90
2018-05-03T22:14:04.314Z,90.00
2018-05-03T22:16:31.290Z,90.30
2018-05-03T22:18:57.440Z,90.30
2018-05-03T22:21:23.651Z,90.70
2018-05-03T22:23:49.834Z,90.40
2018-05-03T22:26:16.343Z,90.30
2018-05-03T22:28:42.500Z,90.50
2018-05-03T22:31:09.455Z,91.00
2018-05-03T22:33:36.419Z,90.90
2018-05-03T22:36:02.587Z,90.80
2018-05-03T22:38:29.466Z,90.70
2018-05-03T22:40:56.352Z,90.80
2018-05-03T22:43:22.536Z,90.80
2018-05-03T22:45:49.448Z,90.90
2018-05-03T22:48:15.626Z,90.90
2018-05-03T22:50:42.626Z,90.90
2018-05-03T22:53:09.570Z,91.60
2018-05-03T22:55:35.715Z,91.50
2018-05-03T22:58:02.102Z,91.70
2018-05-03T23:00:28.255Z,91.40
2018-05-03T23:02:54.392Z,91.00
2018-05-03T23:05:20.676Z,90.90
2018-05-03T23:07:46.819Z,91.70
2018-05-03T23:10:12.998Z,91.40
2018-05-03T23:12:39.880Z,91.80
2018-05-03T23:15:06.078Z,91.90
2018-05-03T23:17:32.968Z,91.70
2018-05-03T23:19:59.239Z,91.70
2018-05-03T23:22:25.399Z,92.10
2018-05-03T23:24:51.538Z,91.90
2018-05-03T23:27:17.767Z,92.00
2018-05-03T23:29:43.947Z,92.20
2018-05-03T23:32:10.082Z,92.60
2018-05-03T23:34:36.971Z,92.30
2018-05-03T23:37:03.158Z,92.30
2018-05-03T23:39:30.044Z,92.10
2018-05-03T23:41:56.259Z,92.10
2018-05-03T23:44:22.399Z,92.20
2018-05-03T23:46:48.539Z,92.80
2018-05-03T23:49:14.751Z,92.40
2018-05-03T23:51:40.896Z,92.50
2018-05-03T23:54:07.042Z,92.80
2018-05-03T23:56:33.187Z,92.90
2018-05-03T23:59:00.078Z,93.00
